sensor_id;sensor_type;location;lat;lon;timestamp;pressure;altitude;pressure_sealevel;temperature;humidity
48968;BME280;46511;53.148;8.204;2023-02-14T00:00:57;103693.63;;;5.72;100.00
48968;BME280;46511;53.148;8.204;2023-02-14T00:03:28;103693.41;;;5.51;100.00
48968;BME280;46511;53.148;8.204;2023-02-14T00:06:10;103702.22;;;5.53;100.00
48968;BME280;46511;53.148;8.204;2023-02-14T00:08:42;103699.50;;;5.48;100.00
48968;BME280;46511;53.148;8.204;2023-02-14T00:11:17;103695.91;;;5.40;100.00
48968;BME280;46511;53.148;8.204;2023-02-14T00:13:48;103694.00;;;5.28;100.00
48968;BME280;46511;53.148;8.204;2023-02-14T00:16:37;103703.69;;;5.29;100.00
48968;BME280;46511;53.148;8.204;2023-02-14T00:19:12;103697.53;;;5.30;100.00
48968;BME280;46511;53.148;8.204;2023-02-14T00:21:45;103691.44;;;5.31;100.00
48968;BME280;46511;53.148;8.204;2023-02-14T00:24:21;103689.34;;;5.06;100.00
48968;BME280;46511;53.148;8.204;2023-02-14T00:26:53;103686.72;;;5.06;100.00
48968;BME280;46511;53.148;8.204;2023-02-14T00:29:29;103686.00;;;5.19;100.00
48968;BME280;46511;53.148;8.204;2023-02-14T00:32:02;103690.25;;;5.06;100.00
48968;BME280;46511;53.148;8.204;2023-02-14T00:34:33;103685.75;;;4.98;100.00
48968;BME280;46511;53.148;8.204;2023-02-14T00:37:06;103684.28;;;5.21;100.00
48968;BME280;46511;53.148;8.204;2023-02-14T00:39:37;103682.13;;;4.91;100.00
48968;BME280;46511;53.148;8.204;2023-02-14T00:42:08;103681.34;;;4.97;100.00
48968;BME280;46511;53.148;8.204;2023-02-14T00:44:40;103671.53;;;4.86;100.00
48968;BME280;46511;53.148;8.204;2023-02-14T00:47:11;103673.44;;;4.97;100.00
48968;BME280;46511;53.148;8.204;2023-02-14T00:49:42;103670.78;;;4.95;100.00
48968;BME280;46511;53.148;8.204;2023-02-14T00:52:13;103677.75;;;4.92;100.00
48968;BME280;46511;53.148;8.204;2023-02-14T00:54:45;103677.94;;;5.07;100.00
48968;BME280;46511;53.148;8.204;2023-02-14T00:57:16;103673.41;;;4.94;100.00
48968;BME280;46511;53.148;8.204;2023-02-14T00:59:47;103677.56;;;4.78;100.00
48968;BME280;46511;53.148;8.204;2023-02-14T01:02:18;103681.06;;;4.75;100.00
48968;BME280;46511;53.148;8.204;2023-02-14T01:04:50;103679.31;;;4.76;100.00
48968;BME280;46511;53.148;8.204;2023-02-14T01:07:21;103683.75;;;4.81;100.00
48968;BME280;46511;53.148;8.204;2023-02-14T01:09:52;103679.47;;;4.88;100.00
48968;BME280;46511;53.148;8.204;2023-02-14T01:12:23;103682.75;;;4.72;100.00
48968;BME280;46511;53.148;8.204;2023-02-14T01:14:55;103673.94;;;4.70;100.00
48968;BME280;46511;53.148;8.204;2023-02-14T01:17:26;103674.63;;;4.55;100.00
48968;BME280;46511;53.148;8.204;2023-02-14T01:19:57;103671.19;;;4.62;100.00
48968;BME280;46511;53.148;8.204;2023-02-14T01:22:29;103678.19;;;4.60;100.00
48968;BME280;46511;53.148;8.204;2023-02-14T01:25:04;103669.38;;;4.55;100.00
48968;BME280;46511;53.148;8.204;2023-02-14T01:27:36;103671.03;;;4.50;100.00
48968;BME280;46511;53.148;8.204;2023-02-14T01:30:07;103665.81;;;4.53;100.00
48968;BME280;46511;53.148;8.204;2023-02-14T01:32:39;103670.13;;;4.48;100.00
48968;BME280;46511;53.148;8.204;2023-02-14T01:35:12;103665.75;;;4.50;100.00
48968;BME280;46511;53.148;8.204;2023-02-14T01:37:43;103667.53;;;4.51;100.00
48968;BME280;46511;53.148;8.204;2023-02-14T01:40:14;103660.38;;;4.41;100.00
48968;BME280;46511;53.148;8.204;2023-02-14T01:42:47;103670.72;;;4.28;100.00
48968;BME280;46511;53.148;8.204;2023-02-14T01:45:19;103673.31;;;4.27;100.00
48968;BME280;46511;53.148;8.204;2023-02-14T01:47:52;103668.09;;;4.30;100.00
48968;BME280;46511;53.148;8.204;2023-02-14T01:50:27;103661.91;;;4.26;100.00
48968;BME280;46511;53.148;8.204;2023-02-14T01:53:03;103663.75;;;4.34;100.00
48968;BME280;46511;53.148;8.204;2023-02-14T01:55:40;103657.47;;;4.24;100.00
48968;BME280;46511;53.148;8.204;2023-02-14T01:58:14;103654.03;;;4.26;100.00
48968;BME280;46511;53.148;8.204;2023-02-14T02:00:51;103656.59;;;4.23;100.00
48968;BME280;46511;53.148;8.204;2023-02-14T02:03:41;103647.81;;;4.24;100.00
48968;BME280;46511;53.148;8.204;2023-02-14T02:06:21;103645.91;;;4.14;100.00
48968;BME280;46511;53.148;8.204;2023-02-14T02:09:06;103644.13;;;4.10;100.00
48968;BME280;46511;53.148;8.204;2023-02-14T02:11:42;103643.41;;;4.20;100.00
48968;BME280;46511;53.148;8.204;2023-02-14T02:14:16;103637.22;;;4.18;100.00
48968;BME280;46511;53.148;8.204;2023-02-14T02:17:07;103641.53;;;4.15;100.00
48968;BME280;46511;53.148;8.204;2023-02-14T02:52:08;103627.66;;;4.25;100.00
48968;BME280;46511;53.148;8.204;2023-02-14T02:55:12;103628.47;;;4.19;100.00
48968;BME280;46511;53.148;8.204;2023-02-14T02:57:47;103626.78;;;4.26;100.00
48968;BME280;46511;53.148;8.204;2023-02-14T03:00:21;103623.34;;;4.28;100.00
48968;BME280;46511;53.148;8.204;2023-02-14T03:02:54;103623.25;;;4.22;100.00
48968;BME280;46511;53.148;8.204;2023-02-14T03:05:46;103616.94;;;4.11;100.00
48968;BME280;46511;53.148;8.204;2023-02-14T03:08:18;103610.06;;;4.19;100.00
48968;BME280;46511;53.148;8.204;2023-02-14T03:10:49;103610.81;;;4.12;100.00
48968;BME280;46511;53.148;8.204;2023-02-14T03:13:29;103605.78;;;4.27;100.00
48968;BME280;46511;53.148;8.204;2023-02-14T03:19:57;103602.41;;;4.36;100.00
48968;BME280;46511;53.148;8.204;2023-02-14T03:22:50;103605.94;;;4.37;100.00
48968;BME280;46511;53.148;8.204;2023-02-14T03:28:39;103604.03;;;4.26;100.00
48968;BME280;46511;53.148;8.204;2023-02-14T03:34:15;103594.78;;;4.56;100.00
48968;BME280;46511;53.148;8.204;2023-02-14T03:36:54;103600.91;;;4.55;100.00
48968;BME280;46511;53.148;8.204;2023-02-14T03:42:25;103586.81;;;4.53;100.00
48968;BME280;46511;53.148;8.204;2023-02-14T03:45:01;103586.03;;;4.57;100.00
48968;BME280;46511;53.148;8.204;2023-02-14T03:47:37;103579.75;;;4.49;100.00
48968;BME280;46511;53.148;8.204;2023-02-14T03:50:13;103578.75;;;4.38;100.00
48968;BME280;46511;53.148;8.204;2023-02-14T03:52:49;103578.81;;;4.44;100.00
48968;BME280;46511;53.148;8.204;2023-02-14T03:55:27;103572.63;;;4.40;100.00
48968;BME280;46511;53.148;8.204;2023-02-14T03:58:09;103571.78;;;4.43;100.00
48968;BME280;46511;53.148;8.204;2023-02-14T04:00:46;103568.34;;;4.48;100.00
48968;BME280;46511;53.148;8.204;2023-02-14T04:03:22;103576.13;;;4.41;100.00
48968;BME280;46511;53.148;8.204;2023-02-14T04:05:57;103578.69;;;4.35;100.00
48968;BME280;46511;53.148;8.204;2023-02-14T04:08:30;103574.38;;;4.40;100.00
48968;BME280;46511;53.148;8.204;2023-02-14T04:11:02;103572.72;;;4.48;100.00
48968;BME280;46511;53.148;8.204;2023-02-14T04:13:35;103573.59;;;4.47;100.00
48968;BME280;46511;53.148;8.204;2023-02-14T04:16:07;103570.97;;;4.47;100.00
48968;BME280;46511;53.148;8.204;2023-02-14T04:18:39;103567.41;;;4.45;100.00
48968;BME280;46511;53.148;8.204;2023-02-14T04:21:28;103569.09;;;4.37;100.00
48968;BME280;46511;53.148;8.204;2023-02-14T04:23:59;103571.72;;;4.38;100.00
48968;BME280;46511;53.148;8.204;2023-02-14T04:26:31;103569.97;;;4.37;100.00
48968;BME280;46511;53.148;8.204;2023-02-14T04:29:02;103562.94;;;4.38;100.00
48968;BME280;46511;53.148;8.204;2023-02-14T04:31:33;103562.97;;;4.39;100.00
48968;BME280;46511;53.148;8.204;2023-02-14T04:34:05;103559.38;;;4.34;100.00
48968;BME280;46511;53.148;8.204;2023-02-14T04:36:36;103558.47;;;4.30;100.00
48968;BME280;46511;53.148;8.204;2023-02-14T04:39:07;103562.00;;;4.33;100.00
48968;BME280;46511;53.148;8.204;2023-02-14T04:41:38;103553.16;;;4.27;100.00
48968;BME280;46511;53.148;8.204;2023-02-14T04:44:09;103554.84;;;4.22;100.00
48968;BME280;46511;53.148;8.204;2023-02-14T04:46:41;103554.81;;;4.19;100.00
48968;BME280;46511;53.148;8.204;2023-02-14T04:49:12;103556.56;;;4.19;100.00
48968;BME280;46511;53.148;8.204;2023-02-14T04:51:43;103553.03;;;4.18;100.00
48968;BME280;46511;53.148;8.204;2023-02-14T04:54:14;103554.69;;;4.13;100.00
48968;BME280;46511;53.148;8.204;2023-02-14T04:56:46;103548.56;;;4.13;100.00
48968;BME280;46511;53.148;8.204;2023-02-14T04:59:17;103551.34;;;4.23;100.00
48968;BME280;46511;53.148;8.204;2023-02-14T05:01:48;103553.91;;;4.19;100.00
48968;BME280;46511;53.148;8.204;2023-02-14T05:04:20;103552.94;;;4.12;100.00
48968;BME280;46511;53.148;8.204;2023-02-14T05:06:51;103545.81;;;4.05;100.00
48968;BME280;46511;53.148;8.204;2023-02-14T05:09:22;103545.78;;;4.02;100.00
48968;BME280;46511;53.148;8.204;2023-02-14T05:11:53;103537.03;;;4.03;100.00
48968;BME280;46511;53.148;8.204;2023-02-14T05:14:25;103537.00;;;4.00;100.00
48968;BME280;46511;53.148;8.204;2023-02-14T05:16:56;103537.00;;;4.00;100.00
48968;BME280;46511;53.148;8.204;2023-02-14T05:19:27;103535.25;;;4.02;100.00
48968;BME280;46511;53.148;8.204;2023-02-14T05:21:59;103533.50;;;4.01;100.00
48968;BME280;46511;53.148;8.204;2023-02-14T05:24:30;103530.69;;;3.89;100.00
48968;BME280;46511;53.148;8.204;2023-02-14T05:27:01;103529.75;;;3.85;100.00
48968;BME280;46511;53.148;8.204;2023-02-14T05:29:32;103527.97;;;3.84;100.00
48968;BME280;46511;53.148;8.204;2023-02-14T05:32:04;103519.22;;;3.84;100.00
48968;BME280;46511;53.148;8.204;2023-02-14T05:34:35;103518.31;;;3.82;100.00
48968;BME280;46511;53.148;8.204;2023-02-14T05:37:06;103517.44;;;3.83;100.00
48968;BME280;46511;53.148;8.204;2023-02-14T05:39:37;103518.28;;;3.80;100.00
48968;BME280;46511;53.148;8.204;2023-02-14T05:42:09;103511.31;;;3.84;100.00
48968;BME280;46511;53.148;8.204;2023-02-14T05:44:40;103517.47;;;3.86;100.00
48968;BME280;46511;53.148;8.204;2023-02-14T05:47:11;103512.22;;;3.86;100.00
48968;BME280;46511;53.148;8.204;2023-02-14T05:49:42;103517.53;;;3.89;100.00
48968;BME280;46511;53.148;8.204;2023-02-14T05:52:14;103519.25;;;3.87;100.00
48968;BME280;46511;53.148;8.204;2023-02-14T05:54:45;103513.13;;;3.88;100.00
48968;BME280;46511;53.148;8.204;2023-02-14T05:57:16;103511.34;;;3.87;100.00
48968;BME280;46511;53.148;8.204;2023-02-14T05:59:47;103520.09;;;3.86;100.00
48968;BME280;46511;53.148;8.204;2023-02-14T06:02:19;103506.91;;;3.81;100.00
48968;BME280;46511;53.148;8.204;2023-02-14T06:04:51;103513.03;;;3.82;100.00
48968;BME280;46511;53.148;8.204;2023-02-14T06:07:22;103515.72;;;3.85;100.00
48968;BME280;46511;53.148;8.204;2023-02-14T06:09:54;103515.75;;;3.88;100.00
48968;BME280;46511;53.148;8.204;2023-02-14T06:12:25;103521.72;;;3.76;100.00
48968;BME280;46511;53.148;8.204;2023-02-14T06:14:56;103520.78;;;3.72;100.00
48968;BME280;46511;53.148;8.204;2023-02-14T06:17:27;103520.69;;;3.66;100.00
48968;BME280;46511;53.148;8.204;2023-02-14T06:19:59;103522.41;;;3.64;100.00
48968;BME280;46511;53.148;8.204;2023-02-14T06:22:30;103525.03;;;3.63;100.00
48968;BME280;46511;53.148;8.204;2023-02-14T06:25:01;103524.19;;;3.65;100.00
48968;BME280;46511;53.148;8.204;2023-02-14T06:27:34;103520.69;;;3.66;100.00
48968;BME280;46511;53.148;8.204;2023-02-14T06:30:05;103525.94;;;3.66;100.00
48968;BME280;46511;53.148;8.204;2023-02-14T06:32:38;103523.34;;;3.68;100.00
48968;BME280;46511;53.148;8.204;2023-02-14T06:35:09;103530.34;;;3.69;100.00
48968;BME280;46511;53.148;8.204;2023-02-14T06:37:41;103530.41;;;3.70;100.00
48968;BME280;46511;53.148;8.204;2023-02-14T06:40:14;103533.94;;;3.72;100.00
48968;BME280;46511;53.148;8.204;2023-02-14T06:42:45;103531.34;;;3.76;100.00
48968;BME280;46511;53.148;8.204;2023-02-14T06:45:16;103540.09;;;3.75;100.00
48968;BME280;46511;53.148;8.204;2023-02-14T06:47:48;103545.34;;;3.75;100.00
48968;BME280;46511;53.148;8.204;2023-02-14T06:50:19;103550.56;;;3.71;100.00
48968;BME280;46511;53.148;8.204;2023-02-14T06:52:50;103541.88;;;3.76;100.00
48968;BME280;46511;53.148;8.204;2023-02-14T06:55:21;103540.22;;;3.81;100.00
48968;BME280;46511;53.148;8.204;2023-02-14T06:57:53;103542.09;;;3.89;100.00
48968;BME280;46511;53.148;8.204;2023-02-14T07:00:24;103541.22;;;3.90;100.00
48968;BME280;46511;53.148;8.204;2023-02-14T07:02:55;103535.81;;;3.81;100.00
48968;BME280;46511;53.148;8.204;2023-02-14T07:05:27;103538.47;;;3.83;100.00
48968;BME280;46511;53.148;8.204;2023-02-14T07:07:58;103531.72;;;3.98;100.00
48968;BME280;46511;53.148;8.204;2023-02-14T07:10:30;103528.22;;;3.99;100.00
48968;BME280;46511;53.148;8.204;2023-02-14T07:13:01;103530.16;;;4.14;100.00
48968;BME280;46511;53.148;8.204;2023-02-14T07:15:33;103530.38;;;4.29;100.00
48968;BME280;46511;53.148;8.204;2023-02-14T07:18:04;103529.72;;;4.46;100.00
48968;BME280;46511;53.148;8.204;2023-02-14T07:20:38;103523.66;;;4.53;100.00
48968;BME280;46511;53.148;8.204;2023-02-14T07:23:10;103521.97;;;4.56;100.00
48968;BME280;46511;53.148;8.204;2023-02-14T07:25:41;103514.13;;;4.64;100.00
48968;BME280;46511;53.148;8.204;2023-02-14T07:28:13;103510.72;;;4.73;100.00
48968;BME280;46511;53.148;8.204;2023-02-14T07:30:44;103517.47;;;4.48;100.00
48968;BME280;46511;53.148;8.204;2023-02-14T07:33:15;103514.09;;;4.61;100.00
48968;BME280;46511;53.148;8.204;2023-02-14T07:35:46;103517.84;;;4.81;100.00
48968;BME280;46511;53.148;8.204;2023-02-14T07:38:18;103528.72;;;5.12;100.00
48968;BME280;46511;53.148;8.204;2023-02-14T07:40:51;103514.72;;;5.21;100.00
48968;BME280;46511;53.148;8.204;2023-02-14T07:43:23;103522.94;;;5.59;100.00
48968;BME280;46511;53.148;8.204;2023-02-14T07:45:55;103513.16;;;7.54;100.00
48968;BME280;46511;53.148;8.204;2023-02-14T07:48:26;103510.44;;;9.61;100.00
48968;BME280;46511;53.148;8.204;2023-02-14T07:50:57;103489.28;;;10.99;100.00
48968;BME280;46511;53.148;8.204;2023-02-14T07:53:29;103484.72;;;11.06;100.00
48968;BME280;46511;53.148;8.204;2023-02-14T07:56:00;103487.38;;;11.60;100.00
48968;BME280;46511;53.148;8.204;2023-02-14T07:58:31;103485.53;;;11.63;100.00
48968;BME280;46511;53.148;8.204;2023-02-14T08:01:03;103487.78;;;12.31;100.00
48968;BME280;46511;53.148;8.204;2023-02-14T08:03:34;103485.41;;;12.59;100.00
48968;BME280;46511;53.148;8.204;2023-02-14T08:06:05;103487.19;;;11.70;100.00
48968;BME280;46511;53.148;8.204;2023-02-14T08:08:36;103494.94;;;11.86;100.00
48968;BME280;46511;53.148;8.204;2023-02-14T08:11:08;103491.09;;;12.44;100.00
48968;BME280;46511;53.148;8.204;2023-02-14T08:13:39;103488.28;;;13.95;99.61
48968;BME280;46511;53.148;8.204;2023-02-14T08:16:10;103488.72;;;14.72;90.09
48968;BME280;46511;53.148;8.204;2023-02-14T08:18:42;103486.09;;;14.98;84.14
48968;BME280;46511;53.148;8.204;2023-02-14T08:21:14;103486.13;;;14.97;77.87
48968;BME280;46511;53.148;8.204;2023-02-14T08:23:47;103487.28;;;14.29;77.10
48968;BME280;46511;53.148;8.204;2023-02-14T08:26:18;103490.13;;;15.11;74.69
48968;BME280;46511;53.148;8.204;2023-02-14T08:28:49;103487.50;;;15.88;69.11
48968;BME280;46511;53.148;8.204;2023-02-14T08:31:24;103486.63;;;15.62;66.53
48968;BME280;46511;53.148;8.204;2023-02-14T08:33:57;103494.22;;;13.74;73.72
48968;BME280;46511;53.148;8.204;2023-02-14T08:36:29;103484.34;;;15.77;68.36
48968;BME280;46511;53.148;8.204;2023-02-14T08:39:00;103486.13;;;16.49;62.82
48968;BME280;46511;53.148;8.204;2023-02-14T08:41:33;103482.88;;;16.63;59.43
48968;BME280;46511;53.148;8.204;2023-02-14T08:44:04;103487.13;;;16.70;61.12
48968;BME280;46511;53.148;8.204;2023-02-14T08:46:35;103485.63;;;17.49;56.63
48968;BME280;46511;53.148;8.204;2023-02-14T08:49:08;103474.94;;;17.68;54.98
48968;BME280;46511;53.148;8.204;2023-02-14T08:51:40;103475.06;;;19.88;47.78
48968;BME280;46511;53.148;8.204;2023-02-14T08:54:11;103469.91;;;20.01;46.57
48968;BME280;46511;53.148;8.204;2023-02-14T08:56:42;103472.09;;;20.59;45.88
48968;BME280;46511;53.148;8.204;2023-02-14T08:59:14;103474.88;;;20.89;42.87
48968;BME280;46511;53.148;8.204;2023-02-14T09:01:45;103468.19;;;20.80;43.13
48968;BME280;46511;53.148;8.204;2023-02-14T09:04:16;103479.06;;;20.14;44.20
48968;BME280;46511;53.148;8.204;2023-02-14T09:06:47;103467.97;;;21.89;41.04
48968;BME280;46511;53.148;8.204;2023-02-14T09:09:19;103468.09;;;20.81;41.77
48968;BME280;46511;53.148;8.204;2023-02-14T09:11:50;103462.34;;;23.17;38.42
48968;BME280;46511;53.148;8.204;2023-02-14T09:14:21;103461.81;;;23.12;36.97
48968;BME280;46511;53.148;8.204;2023-02-14T09:16:54;103457.00;;;22.62;36.95
48968;BME280;46511;53.148;8.204;2023-02-14T09:19:25;103464.19;;;22.06;38.64
48968;BME280;46511;53.148;8.204;2023-02-14T09:21:56;103458.47;;;23.74;35.17
48968;BME280;46511;53.148;8.204;2023-02-14T09:24:28;103460.63;;;23.69;35.08
48968;BME280;46511;53.148;8.204;2023-02-14T09:27:01;103460.38;;;24.48;33.50
48968;BME280;46511;53.148;8.204;2023-02-14T09:29:32;103455.50;;;24.15;33.87
48968;BME280;46511;53.148;8.204;2023-02-14T09:32:04;103453.00;;;24.37;33.03
48968;BME280;46511;53.148;8.204;2023-02-14T09:34:35;103459.38;;;24.49;32.33
48968;BME280;46511;53.148;8.204;2023-02-14T09:37:08;103460.28;;;24.97;31.47
48968;BME280;46511;53.148;8.204;2023-02-14T09:39:40;103468.34;;;24.62;31.97
48968;BME280;46511;53.148;8.204;2023-02-14T09:42:24;103463.00;;;25.68;29.97
48968;BME280;46511;53.148;8.204;2023-02-14T09:45:21;103463.66;;;24.28;32.16
48968;BME280;46511;53.148;8.204;2023-02-14T09:50:35;103459.78;;;25.62;29.54
48968;BME280;46511;53.148;8.204;2023-02-14T09:55:51;103469.75;;;24.18;31.57
48968;BME280;46511;53.148;8.204;2023-02-14T09:58:28;103463.34;;;24.69;31.31
48968;BME280;46511;53.148;8.204;2023-02-14T10:06:56;103471.56;;;23.54;33.21
48968;BME280;46511;53.148;8.204;2023-02-14T10:12:37;103462.44;;;25.86;29.45
48968;BME280;46511;53.148;8.204;2023-02-14T10:15:14;103464.44;;;24.90;29.92
48968;BME280;46511;53.148;8.204;2023-02-14T10:17:54;103461.47;;;26.10;28.12
48968;BME280;46511;53.148;8.204;2023-02-14T10:20:36;103458.31;;;24.75;30.25
48968;BME280;46511;53.148;8.204;2023-02-14T10:26:02;103450.31;;;26.24;28.46
48968;BME280;46511;53.148;8.204;2023-02-14T10:28:53;103443.72;;;27.77;26.99
48968;BME280;46511;53.148;8.204;2023-02-14T10:34:15;103439.47;;;28.84;25.29
48968;BME280;46511;53.148;8.204;2023-02-14T10:48:49;103433.69;;;30.29;23.84
48968;BME280;46511;53.148;8.204;2023-02-14T10:51:32;103435.47;;;28.29;25.49
48968;BME280;46511;53.148;8.204;2023-02-14T10:54:15;103434.66;;;28.07;25.17
48968;BME280;46511;53.148;8.204;2023-02-14T10:56:52;103429.44;;;28.35;24.85
48968;BME280;46511;53.148;8.204;2023-02-14T11:02:12;103427.72;;;27.73;26.44
48968;BME280;46511;53.148;8.204;2023-02-14T11:04:45;103424.75;;;28.76;25.15
48968;BME280;46511;53.148;8.204;2023-02-14T11:07:19;103424.50;;;29.17;24.19
48968;BME280;46511;53.148;8.204;2023-02-14T11:09:51;103414.13;;;25.55;28.50
48968;BME280;46511;53.148;8.204;2023-02-14T11:12:36;103416.41;;;27.15;26.81
48968;BME280;46511;53.148;8.204;2023-02-14T11:17:46;103401.13;;;28.55;24.69
48968;BME280;46511;53.148;8.204;2023-02-14T11:22:52;103399.41;;;29.51;24.02
48968;BME280;46511;53.148;8.204;2023-02-14T11:25:27;103404.81;;;27.22;26.66
48968;BME280;46511;53.148;8.204;2023-02-14T11:28:05;103394.56;;;28.27;25.44
48968;BME280;46511;53.148;8.204;2023-02-14T11:30:46;103392.25;;;29.11;24.36
48968;BME280;46511;53.148;8.204;2023-02-14T11:33:39;103388.59;;;29.86;23.81
48968;BME280;46511;53.148;8.204;2023-02-14T11:36:13;103376.13;;;31.18;21.31
48968;BME280;46511;53.148;8.204;2023-02-14T11:38:53;103380.09;;;28.46;24.69
48968;BME280;46511;53.148;8.204;2023-02-14T11:41:45;103376.41;;;29.05;24.51
48968;BME280;46511;53.148;8.204;2023-02-14T11:44:27;103368.19;;;28.66;24.47
48968;BME280;46511;53.148;8.204;2023-02-14T11:50:03;103359.78;;;29.26;23.56
48968;BME280;46511;53.148;8.204;2023-02-14T11:52:46;103353.47;;;26.95;27.10
48968;BME280;46511;53.148;8.204;2023-02-14T11:55:32;103353.41;;;27.27;25.73
48968;BME280;46511;53.148;8.204;2023-02-14T11:58:04;103353.75;;;29.22;23.93
48968;BME280;46511;53.148;8.204;2023-02-14T12:00:38;103344.13;;;30.20;22.93
48968;BME280;46511;53.148;8.204;2023-02-14T12:03:14;103345.66;;;27.74;25.46
48968;BME280;46511;53.148;8.204;2023-02-14T12:05:49;103336.72;;;29.75;23.08
48968;BME280;46511;53.148;8.204;2023-02-14T12:08:23;103342.09;;;26.15;27.69
48968;BME280;46511;53.148;8.204;2023-02-14T12:11:05;103337.31;;;26.83;26.46
48968;BME280;46511;53.148;8.204;2023-02-14T12:13:51;103330.41;;;26.24;27.70
48968;BME280;46511;53.148;8.204;2023-02-14T12:16:29;103327.19;;;26.73;27.29
48968;BME280;46511;53.148;8.204;2023-02-14T12:19:19;103327.41;;;28.25;26.05
48968;BME280;46511;53.148;8.204;2023-02-14T12:22:04;103311.47;;;30.09;22.43
48968;BME280;46511;53.148;8.204;2023-02-14T12:27:25;103317.06;;;27.27;26.36
48968;BME280;46511;53.148;8.204;2023-02-14T12:30:15;103310.44;;;28.89;25.09
48968;BME280;46511;53.148;8.204;2023-02-14T12:32:49;103299.63;;;27.39;26.65
48968;BME280;46511;53.148;8.204;2023-02-14T12:51:47;103286.06;;;27.28;25.96
48968;BME280;46511;53.148;8.204;2023-02-14T12:54:37;103276.53;;;29.56;23.94
48968;BME280;46511;53.148;8.204;2023-02-14T13:00:28;103267.50;;;26.38;27.63
48968;BME280;46511;53.148;8.204;2023-02-14T13:08:57;103259.19;;;27.64;27.18
48968;BME280;46511;53.148;8.204;2023-02-14T13:14:49;103261.59;;;26.96;27.79
48968;BME280;46511;53.148;8.204;2023-02-14T13:17:25;103260.06;;;25.19;29.91
48968;BME280;46511;53.148;8.204;2023-02-14T13:23:02;103249.81;;;25.45;30.77
48968;BME280;46511;53.148;8.204;2023-02-14T13:25:39;103247.59;;;25.72;30.49
48968;BME280;46511;53.148;8.204;2023-02-14T13:28:13;103243.63;;;25.65;29.59
48968;BME280;46511;53.148;8.204;2023-02-14T13:30:46;103241.19;;;26.48;28.73
48968;BME280;46511;53.148;8.204;2023-02-14T13:35:59;103231.03;;;25.53;30.69
48968;BME280;46511;53.148;8.204;2023-02-14T13:38:33;103231.72;;;25.88;29.78
48968;BME280;46511;53.148;8.204;2023-02-14T13:41:13;103223.94;;;24.37;32.19
48968;BME280;46511;53.148;8.204;2023-02-14T13:43:50;103213.47;;;26.32;29.60
48968;BME280;46511;53.148;8.204;2023-02-14T13:54:27;103217.09;;;23.59;34.40
48968;BME280;46511;53.148;8.204;2023-02-14T13:57:03;103213.66;;;23.06;36.21
48968;BME280;46511;53.148;8.204;2023-02-14T14:02:52;103201.09;;;24.39;32.58
48968;BME280;46511;53.148;8.204;2023-02-14T14:08:15;103202.19;;;25.39;31.34
48968;BME280;46511;53.148;8.204;2023-02-14T14:11:12;103204.56;;;23.70;33.98
48968;BME280;46511;53.148;8.204;2023-02-14T14:16:57;103199.72;;;22.73;35.91
48968;BME280;46511;53.148;8.204;2023-02-14T14:22:01;103198.25;;;24.41;31.30
48968;BME280;46511;53.148;8.204;2023-02-14T14:24:36;103186.28;;;26.21;29.64
48968;BME280;46511;53.148;8.204;2023-02-14T14:27:14;103192.19;;;24.13;32.52
48968;BME280;46511;53.148;8.204;2023-02-14T14:30:02;103186.34;;;22.84;35.45
48968;BME280;46511;53.148;8.204;2023-02-14T14:32:36;103184.97;;;23.41;35.88
48968;BME280;46511;53.148;8.204;2023-02-14T14:37:46;103189.59;;;22.89;34.30
48968;BME280;46511;53.148;8.204;2023-02-14T14:43:00;103185.13;;;21.69;41.11
48968;BME280;46511;53.148;8.204;2023-02-14T14:45:36;103181.47;;;22.24;39.24
48968;BME280;46511;53.148;8.204;2023-02-14T14:48:11;103182.66;;;21.93;40.97
48968;BME280;46511;53.148;8.204;2023-02-14T14:50:48;103174.47;;;21.53;44.58
48968;BME280;46511;53.148;8.204;2023-02-14T14:53:21;103169.75;;;21.28;44.83
48968;BME280;46511;53.148;8.204;2023-02-14T14:55:58;103173.97;;;21.47;44.32
48968;BME280;46511;53.148;8.204;2023-02-14T14:58:37;103172.53;;;21.55;41.84
48968;BME280;46511;53.148;8.204;2023-02-14T15:01:12;103169.09;;;21.66;42.39
48968;BME280;46511;53.148;8.204;2023-02-14T15:04:19;103170.31;;;21.48;43.94
48968;BME280;46511;53.148;8.204;2023-02-14T15:06:55;103173.78;;;21.50;45.19
48968;BME280;46511;53.148;8.204;2023-02-14T15:12:01;103164.56;;;20.38;47.64
48968;BME280;46511;53.148;8.204;2023-02-14T15:14:52;103165.44;;;19.93;50.65
48968;BME280;46511;53.148;8.204;2023-02-14T15:17:26;103161.31;;;19.56;51.30
48968;BME280;46511;53.148;8.204;2023-02-14T15:20:02;103157.91;;;19.03;56.14
48968;BME280;46511;53.148;8.204;2023-02-14T15:22:41;103156.44;;;18.65;59.77
48968;BME280;46511;53.148;8.204;2023-02-14T15:25:17;103156.66;;;17.91;65.58
48968;BME280;46511;53.148;8.204;2023-02-14T15:27:50;103149.34;;;17.57;70.04
48968;BME280;46511;53.148;8.204;2023-02-14T15:30:23;103145.72;;;17.39;72.09
48968;BME280;46511;53.148;8.204;2023-02-14T15:33:04;103139.72;;;17.15;74.32
48968;BME280;46511;53.148;8.204;2023-02-14T15:35:38;103140.75;;;16.92;73.92
48968;BME280;46511;53.148;8.204;2023-02-14T15:38:13;103140.19;;;17.42;75.40
48968;BME280;46511;53.148;8.204;2023-02-14T15:40:46;103134.94;;;17.58;73.61
48968;BME280;46511;53.148;8.204;2023-02-14T15:45:50;103139.03;;;17.29;76.59
48968;BME280;46511;53.148;8.204;2023-02-14T15:48:28;103132.06;;;16.87;79.44
48968;BME280;46511;53.148;8.204;2023-02-14T15:51:03;103141.50;;;16.14;86.57
48968;BME280;46511;53.148;8.204;2023-02-14T15:56:19;103136.34;;;14.74;100.00
48968;BME280;46511;53.148;8.204;2023-02-14T15:59:04;103141.06;;;14.16;100.00
48968;BME280;46511;53.148;8.204;2023-02-14T16:01:47;103143.69;;;13.91;100.00
48968;BME280;46511;53.148;8.204;2023-02-14T16:04:39;103136.47;;;13.66;100.00
48968;BME280;46511;53.148;8.204;2023-02-14T16:07:26;103140.78;;;13.13;100.00